Sas van Gent, Netherlands
Current Conditions -  °F | °C
As of 6:25 AM on Monday 22 Dec 2014 (Local Time) from EHFS Reporting Station
Overcast Overcast  
Wind Chill: 50°   Ceiling: 800
Heat Index: 50°   Visibility: 6mi
Dew Point: 48°   Wind: 33mph
Humidity: 94%   Direction: 230°SW
Pressure: 30.06"   Gusts: NA
Location:  51.23°N, 3.8°E
Report Text: EHFS 220525Z AUTO 23029KT 9999 BKN008/// OVC009/// 10/09 Q1018
Loading
Personal Weather Stations






























Interactive Weather Map New forecast layout! Learn more

10-Day Weather Forecast

Advertisements
Track Severe Weather on mobile